createdAt,value
2023-04-08T07:10:38.531Z,9.11
2023-04-08T07:11:38.497Z,9.11
2023-04-08T07:12:38.478Z,9.11
2023-04-08T07:13:38.466Z,9.11
2023-04-08T07:14:38.453Z,9.12
2023-04-08T07:15:38.441Z,9.11
2023-04-08T07:16:38.536Z,9.11
2023-04-08T07:17:38.447Z,9.11
2023-04-08T07:18:38.406Z,9.14
2023-04-08T07:19:38.385Z,9.14
2023-04-08T07:20:38.450Z,9.12
2023-04-08T07:21:38.364Z,9.12
2023-04-08T07:22:38.349Z,9.14
2023-04-08T07:23:38.338Z,9.14
2023-04-08T07:24:38.325Z,9.14
2023-04-08T07:25:38.311Z,9.14
2023-04-08T07:26:38.325Z,9.14
2023-04-08T07:27:38.288Z,9.15
2023-04-08T07:28:38.272Z,9.17
2023-04-08T07:29:38.269Z,9.15
2023-04-08T07:30:38.262Z,9.15
2023-04-08T07:31:38.242Z,9.17
2023-04-08T07:32:38.273Z,9.17
2023-04-08T07:33:38.206Z,9.19
2023-04-08T07:34:38.193Z,9.20
2023-04-08T07:35:38.218Z,9.19
2023-04-08T07:36:38.172Z,9.20
2023-04-08T07:37:38.154Z,9.19
2023-04-08T07:38:38.142Z,9.20
2023-04-08T07:39:38.128Z,9.20
2023-04-08T07:40:38.135Z,9.20
2023-04-08T07:41:38.103Z,9.20
2023-04-08T07:42:40.271Z,9.22
2023-04-08T07:43:38.078Z,9.22
2023-04-08T07:44:38.069Z,9.24
2023-04-08T07:45:38.058Z,9.22
2023-04-08T07:46:38.127Z,9.23
2023-04-08T07:47:38.052Z,9.23
2023-04-08T07:48:38.011Z,9.23
2023-04-08T07:49:37.994Z,9.23
2023-04-08T07:51:08.364Z,9.23
2023-04-08T07:51:39.011Z,9.24
2023-04-08T07:52:37.968Z,9.26
2023-04-08T07:53:37.984Z,9.24
2023-04-08T07:54:37.943Z,9.24
2023-04-08T07:55:37.916Z,9.26
2023-04-08T07:56:37.905Z,9.29
2023-04-08T07:57:37.890Z,9.26
2023-04-08T07:58:37.914Z,9.27
2023-04-08T07:59:37.863Z,9.29
2023-04-08T08:00:37.852Z,9.29
2023-04-08T08:01:37.857Z,9.29
2023-04-08T08:02:37.979Z,9.29
2023-04-08T08:03:37.907Z,9.29
2023-04-08T08:04:38.126Z,9.30
2023-04-08T08:05:37.787Z,9.30
2023-04-08T08:06:37.776Z,9.30
2023-04-08T08:07:37.763Z,9.30
2023-04-08T08:08:37.750Z,9.31
2023-04-08T08:09:37.737Z,9.29
2023-04-08T08:10:37.725Z,9.30
2023-04-08T08:11:37.711Z,9.30
2023-04-08T08:12:37.703Z,9.30
2023-04-08T08:13:37.685Z,9.30
2023-04-08T08:14:37.708Z,9.30
2023-04-08T08:15:37.688Z,9.30
2023-04-08T08:16:37.656Z,9.30
2023-04-08T08:17:37.689Z,9.31
2023-04-08T08:18:37.621Z,9.30
2023-04-08T08:19:37.606Z,9.30
2023-04-08T08:20:37.595Z,9.30
2023-04-08T08:21:37.583Z,9.30
2023-04-08T08:22:44.280Z,9.29
2023-04-08T08:23:38.680Z,9.30
2023-04-08T08:24:37.544Z,9.31
2023-04-08T08:25:37.526Z,9.31
2023-04-08T08:26:37.519Z,9.30
2023-04-08T08:27:37.502Z,9.30
2023-04-08T08:28:37.497Z,9.30
2023-04-08T08:29:37.476Z,9.30
2023-04-08T08:30:37.492Z,9.30
2023-04-08T08:31:37.496Z,9.29
2023-04-08T08:32:37.473Z,9.29
2023-04-08T08:33:37.422Z,9.29
2023-04-08T08:34:37.414Z,9.29
2023-04-08T08:35:37.434Z,9.29
2023-04-08T08:36:37.387Z,9.30
2023-04-08T08:37:37.371Z,9.30
2023-04-08T08:38:37.390Z,9.29
2023-04-08T08:39:37.354Z,9.29
2023-04-08T08:40:37.334Z,9.29
2023-04-08T08:41:37.320Z,9.30
2023-04-08T08:42:40.311Z,9.30
2023-04-08T08:43:37.298Z,9.30
2023-04-08T08:44:37.297Z,9.29
2023-04-08T08:45:37.274Z,9.31
2023-04-08T08:46:37.375Z,9.29
2023-04-08T08:47:37.289Z,9.29
2023-04-08T08:48:37.231Z,9.29
2023-04-08T08:49:37.217Z,9.30
2023-04-08T08:50:43.210Z,9.30
2023-04-08T08:51:37.191Z,9.31
2023-04-08T08:52:37.178Z,9.31
2023-04-08T08:53:37.166Z,9.30
2023-04-08T08:54:37.163Z,9.30
2023-04-08T08:56:37.128Z,9.30
2023-04-08T08:57:37.117Z,9.30
2023-04-08T08:58:37.104Z,9.31
2023-04-08T08:59:37.088Z,9.30
2023-04-08T09:00:37.074Z,9.27
2023-04-08T09:01:37.129Z,9.29
2023-04-08T09:02:37.321Z,9.29
2023-04-08T09:03:37.176Z,9.29
2023-04-08T09:04:37.160Z,9.30
2023-04-08T09:05:37.281Z,9.29
2023-04-08T09:06:37.002Z,9.29
2023-04-08T09:07:36.983Z,9.29
2023-04-08T09:08:37.072Z,9.30
2023-04-08T09:09:36.954Z,9.29
2023-04-08T09:10:36.945Z,9.30
2023-04-08T09:11:36.928Z,9.30
2023-04-08T09:12:36.917Z,9.29
2023-04-08T09:13:36.904Z,9.29
2023-04-08T09:14:37.040Z,9.29
2023-04-08T09:15:36.877Z,9.29
2023-04-08T09:16:36.899Z,9.29
2023-04-08T09:17:36.859Z,9.29
2023-04-08T09:18:36.875Z,9.29
2023-04-08T09:19:36.825Z,9.29
2023-04-08T09:20:36.815Z,9.30
2023-04-08T09:21:36.798Z,9.31
2023-04-08T09:22:36.795Z,9.30
2023-04-08T09:23:36.770Z,9.31
2023-04-08T09:24:36.763Z,9.30
2023-04-08T09:25:36.745Z,9.31
2023-04-08T09:26:36.733Z,9.30
2023-04-08T09:27:36.720Z,9.30
2023-04-08T09:28:36.708Z,9.30
2023-04-08T09:29:39.671Z,9.31
2023-04-08T09:30:36.683Z,9.31
2023-04-08T09:31:36.715Z,9.31
2023-04-08T09:32:36.712Z,9.31
2023-04-08T09:33:36.641Z,9.33
2023-04-08T09:34:36.721Z,9.33
2023-04-08T09:35:36.655Z,9.31
2023-04-08T09:36:36.613Z,9.33
2023-04-08T09:37:36.589Z,9.31
2023-04-08T09:38:36.580Z,9.31
2023-04-08T09:39:36.568Z,9.31
2023-04-08T09:40:36.561Z,9.33
2023-04-08T09:41:36.539Z,9.33
2023-04-08T09:42:36.524Z,9.33
2023-04-08T09:43:36.522Z,9.33
2023-04-08T09:44:36.499Z,9.33
2023-04-08T09:45:36.498Z,9.33
2023-04-08T09:46:36.473Z,9.33
2023-04-08T09:47:36.553Z,9.33
2023-04-08T09:48:36.447Z,9.34
2023-04-08T09:49:36.432Z,9.31
2023-04-08T09:50:36.450Z,9.33
2023-04-08T09:51:36.405Z,9.33
2023-04-08T09:52:36.423Z,9.33
2023-04-08T09:53:36.384Z,9.34
2023-04-08T09:54:36.384Z,9.34
2023-04-08T09:55:36.356Z,9.34
2023-04-08T09:56:42.350Z,9.34
2023-04-08T09:57:36.329Z,9.33
2023-04-08T09:58:36.318Z,9.34
2023-04-08T09:59:36.319Z,9.34
2023-04-08T10:00:36.302Z,9.37
2023-04-08T10:01:36.505Z,9.39
2023-04-08T10:02:36.502Z,9.39
2023-04-08T10:03:36.499Z,9.41
2023-04-08T10:04:36.350Z,9.41
2023-04-08T10:05:36.225Z,9.42
2023-04-08T10:06:36.266Z,9.41
2023-04-08T10:07:36.219Z,9.42
2023-04-08T10:08:36.186Z,9.44
2023-04-08T10:09:36.198Z,9.44
2023-04-08T10:10:36.162Z,9.45
2023-04-08T10:11:36.179Z,9.47
2023-04-08T10:12:36.141Z,9.47
2023-04-08T10:13:36.120Z,9.47
2023-04-08T10:14:36.109Z,9.49
2023-04-08T10:15:36.104Z,9.49
2023-04-08T10:16:36.234Z,9.49
2023-04-08T10:17:36.116Z,9.49
2023-04-08T10:18:36.058Z,9.49
2023-04-08T10:19:36.041Z,9.51
2023-04-08T10:20:36.094Z,9.52
2023-04-08T10:21:36.020Z,9.52
2023-04-08T10:22:36.031Z,9.52
2023-04-08T10:23:35.992Z,9.55
2023-04-08T10:24:35.984Z,9.55
2023-04-08T10:25:35.968Z,9.52
2023-04-08T10:26:35.987Z,9.55
2023-04-08T10:27:35.939Z,9.52
2023-04-08T10:28:35.926Z,9.52
2023-04-08T10:29:35.925Z,9.51
2023-04-08T10:30:35.901Z,9.52
2023-04-08T10:31:35.945Z,9.52
2023-04-08T10:32:35.921Z,9.52
2023-04-08T10:33:39.207Z,9.55
2023-04-08T10:34:35.846Z,9.55
2023-04-08T10:35:35.902Z,9.55
2023-04-08T10:36:35.820Z,9.55
2023-04-08T10:37:35.807Z,9.56
2023-04-08T10:38:35.819Z,9.56
2023-04-08T10:39:36.885Z,9.57
2023-04-08T10:40:35.770Z,9.56
2023-04-08T10:41:35.755Z,9.56
2023-04-08T10:42:35.739Z,9.57
2023-04-08T10:43:35.758Z,9.56
2023-04-08T10:44:41.720Z,9.57
2023-04-08T10:45:35.750Z,9.59
2023-04-08T10:46:35.855Z,9.57
2023-04-08T10:47:35.688Z,9.57
2023-04-08T10:48:35.671Z,9.57
2023-04-08T10:49:35.694Z,9.57
2023-04-08T10:50:35.641Z,9.59
2023-04-08T10:51:35.636Z,9.57
2023-04-08T10:52:35.612Z,9.57
2023-04-08T10:53:35.744Z,9.59
2023-04-08T10:54:35.605Z,9.57
2023-04-08T10:55:41.575Z,9.59
2023-04-08T10:56:35.554Z,9.59
2023-04-08T10:57:35.545Z,9.59
2023-04-08T10:58:35.527Z,9.60
2023-04-08T10:59:35.517Z,9.59
2023-04-08T11:00:41.514Z,9.60
2023-04-08T11:01:35.576Z,9.60
2023-04-08T11:02:35.602Z,9.59
2023-04-08T11:03:35.892Z,9.59
2023-04-08T11:04:35.599Z,9.59
2023-04-08T11:05:35.442Z,9.57
2023-04-08T11:06:35.427Z,9.57
2023-04-08T11:07:35.417Z,9.57
2023-04-08T11:08:35.408Z,9.57
2023-04-08T11:09:35.405Z,9.57
2023-04-08T11:10:35.398Z,9.62
2023-04-08T11:11:35.363Z,9.59
2023-04-08T11:12:35.349Z,9.59
2023-04-08T11:13:44.466Z,9.62
2023-04-08T11:14:36.426Z,9.60
2023-04-08T11:15:35.329Z,9.60
2023-04-08T11:16:35.454Z,9.60
2023-04-08T11:17:35.355Z,9.62
2023-04-08T11:18:35.272Z,9.62
2023-04-08T11:19:35.261Z,9.62
2023-04-08T11:20:35.247Z,9.62
2023-04-08T11:21:35.236Z,9.63
2023-04-08T11:22:35.219Z,9.65
2023-04-08T11:23:35.212Z,9.66
2023-04-08T11:24:35.194Z,9.66
2023-04-08T11:25:35.185Z,9.66
2023-04-08T11:26:35.219Z,9.66
2023-04-08T11:27:35.155Z,9.67
2023-04-08T11:28:35.141Z,9.67
2023-04-08T11:29:35.134Z,9.67
2023-04-08T11:30:35.116Z,9.69
2023-04-08T11:31:35.165Z,9.69
2023-04-08T11:32:35.114Z,9.72
2023-04-08T11:33:35.120Z,9.72
2023-04-08T11:34:35.064Z,9.74
2023-04-08T11:35:35.068Z,9.75
2023-04-08T11:36:35.036Z,9.77
2023-04-08T11:37:35.026Z,9.77
2023-04-08T11:38:35.010Z,9.77
2023-04-08T11:39:34.999Z,9.79
2023-04-08T11:40:34.999Z,9.81
2023-04-08T11:41:34.975Z,9.82
2023-04-08T11:42:35.001Z,9.81
2023-04-08T11:43:34.963Z,9.82
2023-04-08T11:44:34.966Z,9.82
2023-04-08T11:45:34.970Z,9.81
2023-04-08T11:46:35.157Z,9.81
2023-04-08T11:47:34.949Z,9.79
2023-04-08T11:48:34.880Z,9.81
2023-04-08T11:49:34.868Z,9.81
2023-04-08T11:50:34.854Z,9.81
2023-04-08T11:51:34.864Z,9.81
2023-04-08T11:52:34.825Z,9.82
2023-04-08T11:53:34.816Z,9.81
2023-04-08T11:54:34.800Z,9.81
2023-04-08T11:55:34.806Z,9.81
2023-04-08T11:56:34.774Z,9.82
2023-04-08T11:57:34.762Z,9.81
2023-04-08T11:58:34.776Z,9.81
2023-04-08T11:59:34.738Z,9.81
2023-04-08T12:00:34.725Z,9.82
2023-04-08T12:01:34.776Z,9.81
2023-04-08T12:02:34.796Z,9.81
2023-04-08T12:03:34.780Z,9.79
2023-04-08T12:04:34.698Z,9.81
2023-04-08T12:05:34.666Z,9.82
2023-04-08T12:06:34.648Z,9.82
2023-04-08T12:07:34.637Z,9.83
2023-04-08T12:08:34.624Z,9.85
2023-04-08T12:09:34.606Z,9.83
2023-04-08T12:10:34.607Z,9.85
2023-04-08T12:11:34.584Z,9.85
2023-04-08T12:12:34.565Z,9.83
2023-04-08T12:13:34.559Z,9.83
2023-04-08T12:14:34.576Z,9.83
2023-04-08T12:15:34.527Z,9.85
2023-04-08T12:16:34.555Z,9.83
2023-04-08T12:17:34.532Z,9.85
2023-04-08T12:18:34.487Z,9.85
2023-04-08T12:19:35.289Z,9.85
2023-04-08T12:20:34.461Z,9.83
2023-04-08T12:21:34.456Z,9.85
2023-04-08T12:22:34.436Z,9.83
2023-04-08T12:23:34.432Z,9.83
2023-04-08T12:24:34.411Z,9.82
2023-04-08T12:25:34.400Z,9.82
2023-04-08T12:26:34.386Z,9.82
2023-04-08T12:27:34.372Z,9.82
2023-04-08T12:28:34.357Z,9.82
2023-04-08T12:29:34.347Z,9.81
2023-04-08T12:30:34.362Z,9.81
2023-04-08T12:31:34.357Z,9.79
2023-04-08T12:32:34.329Z,9.77
2023-04-08T12:33:34.294Z,9.79
2023-04-08T12:34:34.302Z,9.75
2023-04-08T12:35:34.278Z,9.77
2023-04-08T12:36:34.262Z,9.79
2023-04-08T12:37:34.247Z,9.77
2023-04-08T12:38:34.230Z,9.77
2023-04-08T12:39:34.217Z,9.77
2023-04-08T12:40:34.201Z,9.75
2023-04-08T12:41:34.192Z,9.75
2023-04-08T12:42:34.179Z,9.75
2023-04-08T12:43:34.167Z,9.75
2023-04-08T12:44:34.153Z,9.75
2023-04-08T12:45:34.145Z,9.75
2023-04-08T12:46:34.252Z,9.75
2023-04-08T12:47:34.158Z,9.79
2023-04-08T12:48:34.103Z,9.77
2023-04-08T12:49:42.769Z,9.77
2023-04-08T12:50:35.116Z,9.79
2023-04-08T12:51:34.065Z,9.77
2023-04-08T12:52:34.047Z,9.77
2023-04-08T12:53:34.041Z,9.79
2023-04-08T12:54:34.021Z,9.77
2023-04-08T12:55:34.010Z,9.79
2023-04-08T12:56:33.996Z,9.79
2023-04-08T12:57:33.990Z,9.77
2023-04-08T12:58:33.971Z,9.75
2023-04-08T12:59:33.976Z,9.77
2023-04-08T13:00:33.971Z,9.81
2023-04-08T13:01:33.993Z,9.79
2023-04-08T13:02:34.071Z,9.79
2023-04-08T13:03:34.033Z,9.77
2023-04-08T13:04:33.895Z,9.77
2023-04-08T13:06:34.912Z,9.81
2023-04-08T13:07:33.855Z,9.81
2023-04-08T13:08:33.840Z,9.83
2023-04-08T13:09:33.828Z,9.82
2023-04-08T13:10:33.819Z,9.81
2023-04-08T13:11:33.802Z,9.82
2023-04-08T13:12:33.787Z,9.82
2023-04-08T13:13:33.778Z,9.82
2023-04-08T13:14:33.765Z,9.82
2023-04-08T13:15:33.762Z,9.83
2023-04-08T13:16:33.756Z,9.85
2023-04-08T13:17:33.736Z,9.86
2023-04-08T13:18:33.745Z,9.86
2023-04-08T13:19:33.699Z,9.86
2023-04-08T13:20:33.723Z,9.88
2023-04-08T13:21:33.685Z,9.88
2023-04-08T13:22:33.668Z,9.86
2023-04-08T13:23:33.645Z,9.88
2023-04-08T13:24:33.644Z,9.89
2023-04-08T13:25:33.621Z,9.89
2023-04-08T13:26:33.610Z,9.88
2023-04-08T13:27:33.593Z,9.93
2023-04-08T13:28:36.795Z,9.91
2023-04-08T13:29:34.606Z,9.93
2023-04-08T13:30:33.553Z,9.93
2023-04-08T13:31:33.630Z,9.93
2023-04-08T13:32:33.552Z,9.93
2023-04-08T13:33:33.516Z,9.93
2023-04-08T13:34:33.527Z,9.93
2023-04-08T13:35:33.522Z,9.93
2023-04-08T13:36:33.477Z,9.91
2023-04-08T13:37:33.460Z,9.91
2023-04-08T13:38:33.444Z,9.91
2023-04-08T13:39:33.435Z,9.93
2023-04-08T13:40:33.433Z,9.93
2023-04-08T13:41:33.405Z,9.91
2023-04-08T13:42:33.424Z,9.91
2023-04-08T13:43:33.377Z,9.93
2023-04-08T13:44:33.364Z,9.94
2023-04-08T13:45:33.388Z,9.93
2023-04-08T13:46:33.546Z,9.91
2023-04-08T13:47:34.274Z,9.94
2023-04-08T13:48:33.309Z,9.94
2023-04-08T13:49:33.296Z,9.93
2023-04-08T13:50:33.309Z,9.94
2023-04-08T13:51:33.269Z,9.93
2023-04-08T13:52:33.255Z,9.93
2023-04-08T13:53:33.250Z,9.96
2023-04-08T13:54:33.227Z,9.94
2023-04-08T13:55:33.215Z,9.96
2023-04-08T13:56:33.202Z,9.94
2023-04-08T13:57:33.197Z,9.93
2023-04-08T13:58:33.175Z,9.94
2023-04-08T13:59:33.171Z,9.94
2023-04-08T14:00:33.150Z,9.93
2023-04-08T14:01:33.200Z,9.93
2023-04-08T14:02:33.209Z,9.93
2023-04-08T14:03:33.113Z,9.94
2023-04-08T14:04:33.143Z,9.93
2023-04-08T14:05:33.082Z,9.93
2023-04-08T14:06:33.094Z,9.94
2023-04-08T14:07:33.063Z,9.94
2023-04-08T14:08:33.057Z,9.94
2023-04-08T14:09:33.030Z,9.96
2023-04-08T14:10:33.016Z,9.96
2023-04-08T14:11:33.003Z,9.94
2023-04-08T14:12:32.993Z,9.97
2023-04-08T14:13:32.979Z,9.97
2023-04-08T14:14:32.963Z,9.97
2023-04-08T14:15:32.950Z,9.97
2023-04-08T14:16:32.973Z,9.96
2023-04-08T14:17:33.000Z,9.97
2023-04-08T14:18:32.910Z,9.96
2023-04-08T14:19:32.903Z,9.97
2023-04-08T14:20:32.887Z,9.97
2023-04-08T14:21:32.875Z,9.96
2023-04-08T14:22:32.892Z,9.97
2023-04-08T14:23:32.846Z,9.97
2023-04-08T14:24:32.842Z,9.99
2023-04-08T14:25:32.820Z,9.99
2023-04-08T14:26:32.806Z,9.99
2023-04-08T14:27:33.399Z,9.99
2023-04-08T14:28:32.792Z,10.00
2023-04-08T14:29:32.769Z,9.99
2023-04-08T14:30:32.765Z,9.99
2023-04-08T14:31:32.743Z,10.00
2023-04-08T14:32:32.774Z,10.01
2023-04-08T14:33:32.715Z,10.00
2023-04-08T14:34:32.702Z,10.00
2023-04-08T14:35:32.923Z,9.99
2023-04-08T14:36:32.674Z,9.99
2023-04-08T14:37:32.662Z,10.01
2023-04-08T14:38:32.696Z,10.00
2023-04-08T14:39:32.646Z,10.00
2023-04-08T14:40:32.629Z,10.00
2023-04-08T14:41:32.622Z,10.00
2023-04-08T14:42:32.607Z,10.00
2023-04-08T14:43:32.581Z,9.99
2023-04-08T14:44:32.573Z,10.00
2023-04-08T14:45:32.564Z,9.99
2023-04-08T14:46:32.596Z,10.00
2023-04-08T14:47:32.634Z,9.99
2023-04-08T14:48:32.516Z,10.00
2023-04-08T14:49:32.501Z,10.00
2023-04-08T14:50:32.499Z,9.99
2023-04-08T14:51:32.477Z,9.99
2023-04-08T14:52:32.480Z,10.00
2023-04-08T14:53:32.451Z,9.99
2023-04-08T14:54:32.476Z,9.99
2023-04-08T14:55:32.427Z,9.97
2023-04-08T14:56:32.411Z,9.99
2023-04-08T14:57:32.398Z,9.99
2023-04-08T14:58:32.387Z,9.99
2023-04-08T14:59:32.369Z,9.97
2023-04-08T15:00:32.359Z,9.97
2023-04-08T15:01:32.502Z,9.97
2023-04-08T15:02:32.416Z,9.99
2023-04-08T15:03:32.392Z,9.96
2023-04-08T15:04:32.388Z,9.94
2023-04-08T15:05:33.776Z,9.94
2023-04-08T15:06:32.280Z,9.94
2023-04-08T15:07:32.267Z,9.93
2023-04-08T15:08:32.262Z,9.93
2023-04-08T15:09:32.239Z,9.89
2023-04-08T15:10:32.274Z,9.91
2023-04-08T15:11:32.215Z,9.89
2023-04-08T15:12:32.199Z,9.89
2023-04-08T15:13:32.201Z,9.86
2023-04-08T15:14:32.172Z,9.86
2023-04-08T15:15:32.159Z,9.86
2023-04-08T15:16:32.205Z,9.86
2023-04-08T15:17:32.157Z,9.86
2023-04-08T15:18:32.124Z,9.86
2023-04-08T15:19:32.106Z,9.83
2023-04-08T15:20:32.093Z,9.86
2023-04-08T15:21:32.134Z,9.85
2023-04-08T15:22:32.067Z,9.85
2023-04-08T15:23:32.060Z,9.85
2023-04-08T15:24:32.049Z,9.85
2023-04-08T15:25:32.027Z,9.85
2023-04-08T15:26:32.039Z,9.85
2023-04-08T15:27:32.000Z,9.83
2023-04-08T15:28:31.987Z,9.82
2023-04-08T15:29:31.974Z,9.85
2023-04-08T15:30:31.967Z,9.85
2023-04-08T15:31:32.005Z,9.83
2023-04-08T15:32:31.942Z,9.83
2023-04-08T15:33:31.925Z,9.83
2023-04-08T15:34:31.914Z,9.83
2023-04-08T15:35:31.931Z,9.82
2023-04-08T15:36:31.882Z,9.82
2023-04-08T15:37:31.872Z,9.82
2023-04-08T15:38:31.855Z,9.82
2023-04-08T15:39:31.847Z,9.82
2023-04-08T15:40:31.829Z,9.82
2023-04-08T15:41:31.813Z,9.81
2023-04-08T15:42:31.828Z,9.81
2023-04-08T15:43:31.787Z,9.79
2023-04-08T15:44:31.780Z,9.81
2023-04-08T15:45:31.767Z,9.79
2023-04-08T15:46:31.767Z,9.81
2023-04-08T15:47:31.744Z,9.79
2023-04-08T15:48:31.722Z,9.79
2023-04-08T15:49:31.710Z,9.81
2023-04-08T15:50:31.733Z,9.81
2023-04-08T15:51:31.681Z,9.79
2023-04-08T15:52:31.670Z,9.81
2023-04-08T15:53:31.663Z,9.79
2023-04-08T15:54:31.644Z,9.79
2023-04-08T15:55:31.628Z,9.79
2023-04-08T15:56:31.620Z,9.79
2023-04-08T15:57:31.600Z,9.81
2023-04-08T15:58:31.614Z,9.79
2023-04-08T15:59:31.573Z,9.79
2023-04-08T16:00:31.565Z,9.81
2023-04-08T16:01:31.616Z,9.79
2023-04-08T16:02:31.641Z,9.79
2023-04-08T16:03:31.873Z,9.79
2023-04-08T16:04:31.664Z,9.79
2023-04-08T16:05:31.510Z,9.79
2023-04-08T16:06:31.483Z,9.79
2023-04-08T16:07:31.487Z,9.77
2023-04-08T16:08:31.459Z,9.79
2023-04-08T16:09:31.440Z,9.79
2023-04-08T16:10:31.430Z,9.77
2023-04-08T16:11:31.418Z,9.79
2023-04-08T16:12:31.404Z,9.81
2023-04-08T16:13:31.445Z,9.79
2023-04-08T16:14:31.406Z,9.79
2023-04-08T16:15:31.364Z,9.77
2023-04-08T16:16:31.388Z,9.77
2023-04-08T16:17:31.373Z,9.79
2023-04-08T16:18:31.328Z,9.77
2023-04-08T16:19:31.315Z,9.77
2023-04-08T16:20:31.308Z,9.77
2023-04-08T16:21:31.282Z,9.77
2023-04-08T16:22:31.272Z,9.77
2023-04-08T16:23:31.263Z,9.75
2023-04-08T16:24:31.245Z,9.75
2023-04-08T16:25:31.334Z,9.77
2023-04-08T16:26:31.224Z,9.77
2023-04-08T16:27:31.206Z,9.77
2023-04-08T16:28:31.194Z,9.75
2023-04-08T16:29:31.181Z,9.77
2023-04-08T16:30:31.196Z,9.77
2023-04-08T16:32:31.159Z,9.77
2023-04-08T16:33:31.128Z,9.75
2023-04-08T16:34:31.115Z,9.75
2023-04-08T16:35:31.101Z,9.74
2023-04-08T16:36:31.087Z,9.74
2023-04-08T16:37:31.082Z,9.75
2023-04-08T16:38:31.074Z,9.74
2023-04-08T16:39:31.052Z,9.74
2023-04-08T16:40:31.038Z,9.74
2023-04-08T16:41:31.025Z,9.74
2023-04-08T16:42:31.014Z,9.74
2023-04-08T16:43:30.997Z,9.74
2023-04-08T16:44:30.989Z,9.74
2023-04-08T16:45:30.988Z,9.72
2023-04-08T16:46:30.986Z,9.74
2023-04-08T16:47:30.947Z,9.74
2023-04-08T16:48:30.950Z,9.72
2023-04-08T16:49:30.919Z,9.72
2023-04-08T16:50:30.910Z,9.72
2023-04-08T16:51:30.893Z,9.72
2023-04-08T16:52:30.882Z,9.72
2023-04-08T16:53:30.876Z,9.72
2023-04-08T16:54:30.858Z,9.72
2023-04-08T16:55:30.841Z,9.72
2023-04-08T16:56:30.829Z,9.72
2023-04-08T16:57:30.814Z,9.72
2023-04-08T16:58:30.804Z,9.72
2023-04-08T16:59:30.789Z,9.72
2023-04-08T17:00:30.776Z,9.70
2023-04-08T17:01:30.819Z,9.70
2023-04-08T17:02:30.874Z,9.70
2023-04-08T17:03:30.764Z,9.70
2023-04-08T17:04:30.727Z,9.70
2023-04-08T17:05:30.708Z,9.70
2023-04-08T17:06:30.698Z,9.70
2023-04-08T17:07:30.686Z,9.70
2023-04-08T17:08:30.671Z,9.70
2023-04-08T17:09:30.659Z,9.70
2023-04-08T17:10:30.661Z,9.72
2023-04-08T17:11:30.636Z,9.69
2023-04-08T17:12:30.620Z,9.70
2023-04-08T17:13:30.608Z,9.70
2023-04-08T17:14:30.594Z,9.72
2023-04-08T17:15:30.580Z,9.69
2023-04-08T17:16:30.603Z,9.72
2023-04-08T17:17:30.606Z,9.70
2023-04-08T17:18:30.567Z,9.69
2023-04-08T17:19:30.530Z,9.69
2023-04-08T17:20:30.516Z,9.69
2023-04-08T17:21:30.502Z,9.69
2023-04-08T17:22:30.504Z,9.70
2023-04-08T17:23:30.492Z,9.69
2023-04-08T17:24:30.464Z,9.69
2023-04-08T17:25:30.480Z,9.69
2023-04-08T17:26:30.438Z,9.69
2023-04-08T17:27:30.424Z,9.69
2023-04-08T17:28:30.413Z,9.69
2023-04-08T17:29:30.400Z,9.69
2023-04-08T17:30:30.388Z,9.69
2023-04-08T17:31:30.427Z,9.67
2023-04-08T17:32:30.446Z,9.69
2023-04-08T17:33:30.345Z,9.69
2023-04-08T17:34:30.359Z,9.69
2023-04-08T17:35:30.324Z,9.67
2023-04-08T17:36:30.711Z,9.69
2023-04-08T17:37:30.294Z,9.69
2023-04-08T17:38:30.282Z,9.67
2023-04-08T17:39:30.271Z,9.67
2023-04-08T17:40:30.259Z,9.69
2023-04-08T17:41:39.101Z,9.69
2023-04-08T17:42:31.267Z,9.66
2023-04-08T17:43:30.232Z,9.69
2023-04-08T17:44:30.231Z,9.67
2023-04-08T17:45:30.186Z,9.66
2023-04-08T17:46:30.215Z,9.67
2023-04-08T17:47:30.212Z,9.67
2023-04-08T17:48:30.150Z,9.66
2023-04-08T17:49:30.134Z,9.69
2023-04-08T17:50:30.152Z,9.67
2023-04-08T17:51:30.154Z,9.67
2023-04-08T17:52:30.097Z,9.66
2023-04-08T17:53:30.095Z,9.66
2023-04-08T17:54:30.070Z,9.67
2023-04-08T17:55:30.059Z,9.67
2023-04-08T17:56:30.045Z,9.67
2023-04-08T17:57:30.028Z,9.67
2023-04-08T17:58:30.018Z,9.67
2023-04-08T17:59:30.004Z,9.66
2023-04-08T18:00:29.990Z,9.66
2023-04-08T18:01:30.056Z,9.66
2023-04-08T18:02:30.121Z,9.67
2023-04-08T18:03:30.183Z,9.66
2023-04-08T18:04:29.935Z,9.66
2023-04-08T18:05:29.951Z,9.66
2023-04-08T18:06:29.936Z,9.67
2023-04-08T18:07:29.899Z,9.66
2023-04-08T18:08:29.886Z,9.66
2023-04-08T18:09:29.878Z,9.65
2023-04-08T18:10:29.862Z,9.66
2023-04-08T18:11:29.847Z,9.65
2023-04-08T18:12:29.836Z,9.65
2023-04-08T18:13:29.821Z,9.66
2023-04-08T18:14:29.812Z,9.65
2023-04-08T18:15:29.793Z,9.65
2023-04-08T18:16:29.811Z,9.65
2023-04-08T18:17:29.807Z,9.65
2023-04-08T18:18:29.752Z,9.66
2023-04-08T18:19:29.738Z,9.65
2023-04-08T18:20:29.733Z,9.65
2023-04-08T18:21:29.724Z,9.65
2023-04-08T18:22:29.728Z,9.65
2023-04-08T18:23:29.699Z,9.63
2023-04-08T18:24:29.676Z,9.65
2023-04-08T18:25:29.661Z,9.65
2023-04-08T18:26:29.648Z,9.65
2023-04-08T18:27:29.636Z,9.65
2023-04-08T18:28:29.625Z,9.65
2023-04-08T18:29:29.619Z,9.63
2023-04-08T18:30:29.606Z,9.65
2023-04-08T18:31:29.585Z,9.63
2023-04-08T18:32:29.629Z,9.65
2023-04-08T18:33:29.556Z,9.63
2023-04-08T18:34:29.547Z,9.65
2023-04-08T18:35:29.544Z,9.63
2023-04-08T18:36:29.519Z,9.63
2023-04-08T18:37:29.505Z,9.65
2023-04-08T18:38:29.516Z,9.62
2023-04-08T18:39:29.496Z,9.63
2023-04-08T18:40:29.470Z,9.63
2023-04-08T18:41:29.457Z,9.63
2023-04-08T18:42:29.441Z,9.63
2023-04-08T18:43:29.428Z,9.63
2023-04-08T18:44:29.414Z,9.65
2023-04-08T18:45:29.523Z,9.65
2023-04-08T18:46:29.417Z,9.65
2023-04-08T18:47:29.442Z,9.63
2023-04-08T18:48:29.364Z,9.63
2023-04-08T18:49:29.917Z,9.63
2023-04-08T18:50:29.336Z,9.63
2023-04-08T18:51:29.322Z,9.63
2023-04-08T18:52:29.309Z,9.63
2023-04-08T18:53:29.299Z,9.63
2023-04-08T18:54:29.310Z,9.62
2023-04-08T18:55:29.278Z,9.62
2023-04-08T18:56:29.255Z,9.62
2023-04-08T18:57:29.251Z,9.63
2023-04-08T18:58:29.234Z,9.63
2023-04-08T18:59:29.216Z,9.63
2023-04-08T19:00:29.206Z,9.62
2023-04-08T19:01:29.213Z,9.63
2023-04-08T19:02:29.264Z,9.60
2023-04-08T19:03:29.244Z,9.63
2023-04-08T19:04:29.207Z,9.62
2023-04-08T19:05:29.136Z,9.62
2023-04-08T19:06:29.121Z,9.63
2023-04-08T19:07:29.113Z,9.63
2023-04-08T19:08:29.098Z,9.60
2023-04-08T19:09:29.084Z,9.62
2023-04-08T19:10:29.096Z,9.62
2023-04-08T19:11:29.094Z,9.62
2023-04-08T19:12:29.042Z,9.62
2023-04-08T19:13:29.031Z,9.60
2023-04-08T19:14:29.017Z,9.60
2023-04-08T19:15:29.323Z,9.62
2023-04-08T19:16:28.999Z,9.60
2023-04-08T19:17:29.020Z,9.60
2023-04-08T19:18:28.980Z,9.59
2023-04-08T19:19:28.948Z,9.60
2023-04-08T19:20:28.941Z,9.60
2023-04-08T19:21:28.926Z,9.60
2023-04-08T19:22:28.909Z,9.60
2023-04-08T19:23:28.910Z,9.60
2023-04-08T19:24:28.895Z,9.62
2023-04-08T19:25:28.868Z,9.62
2023-04-08T19:26:28.878Z,9.63
2023-04-08T19:27:28.844Z,9.60
2023-04-08T19:28:28.831Z,9.62
2023-04-08T19:29:28.816Z,9.60
2023-04-08T19:30:28.976Z,9.60
2023-04-08T19:31:28.843Z,9.59
2023-04-08T19:32:28.788Z,9.59
2023-04-08T19:33:28.769Z,9.59
2023-04-08T19:34:28.758Z,9.60
2023-04-08T19:35:28.740Z,9.60
2023-04-08T19:36:28.728Z,9.60
2023-04-08T19:37:28.720Z,9.59
2023-04-08T19:38:28.699Z,9.59
2023-04-08T19:39:29.039Z,9.60
2023-04-08T19:40:28.673Z,9.57
2023-04-08T19:41:28.658Z,9.59
2023-04-08T19:42:28.669Z,9.59
2023-04-08T19:43:28.641Z,9.56
2023-04-08T19:44:28.618Z,9.57
2023-04-08T19:45:28.617Z,9.56
2023-04-08T19:46:28.625Z,9.56
2023-04-08T19:47:28.596Z,9.57
2023-04-08T19:48:28.568Z,9.57
2023-04-08T19:49:28.556Z,9.56
2023-04-08T19:50:28.539Z,9.57
2023-04-08T19:51:28.526Z,9.56
2023-04-08T19:52:28.512Z,9.56
2023-04-08T19:53:28.504Z,9.56
2023-04-08T19:54:28.487Z,9.56
2023-04-08T19:55:28.482Z,9.55
2023-04-08T19:56:28.461Z,9.56
2023-04-08T19:57:28.449Z,9.56
2023-04-08T19:58:28.481Z,9.56
2023-04-08T19:59:28.421Z,9.56
2023-04-08T20:00:28.426Z,9.56
2023-04-08T20:01:28.452Z,9.56
2023-04-08T20:02:28.531Z,9.56
2023-04-08T20:03:28.667Z,9.56
2023-04-08T20:04:28.443Z,9.55
2023-04-08T20:05:28.342Z,9.55
2023-04-08T20:06:28.346Z,9.56
2023-04-08T20:07:28.317Z,9.55
2023-04-08T20:08:28.303Z,9.55
2023-04-08T20:09:28.291Z,9.55
2023-04-08T20:10:28.280Z,9.52
2023-04-08T20:11:28.264Z,9.55
2023-04-08T20:12:28.266Z,9.56
2023-04-08T20:13:28.243Z,9.52
2023-04-08T20:14:28.259Z,9.56
2023-04-08T20:15:28.253Z,9.55
2023-04-08T20:16:28.286Z,9.55
2023-04-08T20:17:28.273Z,9.52
2023-04-08T20:18:28.177Z,9.52
2023-04-08T20:19:28.167Z,9.55
2023-04-08T20:20:29.983Z,9.56
2023-04-08T20:21:28.142Z,9.55
2023-04-08T20:22:28.126Z,9.55
2023-04-08T20:23:28.110Z,9.55
2023-04-08T20:24:28.097Z,9.55
2023-04-08T20:25:28.095Z,9.56
2023-04-08T20:26:28.077Z,9.55
2023-04-08T20:27:28.060Z,9.52
2023-04-08T20:28:28.048Z,9.52
2023-04-08T20:29:28.035Z,9.51
2023-04-08T20:30:28.047Z,9.51